Huvudsida
METAR-TAF:

METAR-TAF

Flygplatser :

Sharurah, Saudiarabien

latitud: 17-28N, longitud: 047-07E, höjd: 720 m

Aktuellt väderrapport

Denna rapport gjordes för 8 minuter sedan, klockan 19:00 UTC
Vind 4 kt från syd/sydost
Temperatur 35°C
Fuktighet 10%
Tryck 1006 hPa
Sikt 10 km eller mer
Inga moln under 1 500 m eller inga cumulonimbus

METAR: OESH 141900Z 16004KT CAVOK 35/M01 Q1006 NOSIG

Tid: 22:08 (19:08 UTC)

Väderprognos

Denna rapport gjordes för 8 timmar och 8 minuter sedan, klockan 11:00 UTC
Prognos gäller från 14 kl. 12 UTC till 15 kl. 18 UTC
Vind 12 kt från syd
Sikt: 7000 m
Få moln på en höjd av 4000 ft
Blir
från 15 kl. 08 UTC till 15 kl. 10 UTC
Vind 8 kt från nord
Sikt 10 km eller mer
Inga moln under 1 500 m eller inga cumulonimbus

TAF: OESH 141100Z 1412/1518 18012KT 7000 FEW040 BECMG 1508/1510 36008KT CAVOK

Aktuella väderrapporter och prognoser från 4000 flygplatser (METAR- och TAF-rapporter).

De tillgängliga stationerna syns som gula och röda prickar på kartan.

För musen över prickarna för att se namnen på stationerna.

Klicka sedan för att få väderrapporter och prognoser.

För att ändra kartan: Klicka på de gröna knapparna med ett svart kors på för att zooma in; den gröna knappen med ett streck på för att zooma ut; eller på de gröna pilarna för angränsande kartor.


METAR-TAF: